Time;durP1;ratioP1;P1;durP2;ratioP2;P2;SDS_P1;SDS_P2;PMS_P1;PMS_P2;Temp;Humidity;BMP_temperature;BMP_pressure;BME280_temperature;BME280_humidity;BME280_pressure;Samples;Min_cycle;Max_cycle;Signal;HPM_P1;HPM_P2
2022/05/21 00:00:45;;;;;;;5.03;2.70;;;14.20;99.90;;;;;;5071265;28;20209;-71
2022/05/21 00:03:12;;;;;;;2.60;2.40;;;14.00;99.90;;;;;;5063337;28;20210;-70
2022/05/21 00:05:40;;;;;;;3.03;2.73;;;14.00;99.90;;;;;;5070889;28;20222;-70
2022/05/21 00:08:09;;;;;;;3.40;2.50;;;14.00;99.90;;;;;;5071189;28;20899;-71
2022/05/21 00:10:38;;;;;;;2.73;2.20;;;13.90;99.90;;;;;;5069520;28;20244;-71
2022/05/21 00:13:05;;;;;;;3.30;2.40;;;13.90;99.90;;;;;;5070529;28;20198;-70
2022/05/21 00:15:35;;;;;;;3.50;2.53;;;13.80;99.90;;;;;;5071720;28;20194;-71
2022/05/21 00:18:04;;;;;;;4.87;2.90;;;13.70;99.90;;;;;;5075360;28;20661;-71
2022/05/21 00:20:49;;;;;;;2.70;2.50;;;13.80;99.90;;;;;;5067438;28;20209;-71
2022/05/21 00:23:19;;;;;;;3.10;2.77;;;13.80;99.90;;;;;;5061562;28;20199;-71
2022/05/21 00:25:49;;;;;;;4.50;2.80;;;13.80;99.90;;;;;;5068806;28;20244;-71
2022/05/21 00:28:16;;;;;;;3.30;2.97;;;13.70;99.90;;;;;;5074296;28;20198;-71
2022/05/21 00:30:45;;;;;;;3.20;2.90;;;13.60;99.90;;;;;;5073723;28;20199;-71
2022/05/21 00:33:14;;;;;;;3.80;3.37;;;13.70;99.90;;;;;;5075486;28;20277;-71
2022/05/21 00:35:41;;;;;;;4.20;3.23;;;13.70;99.90;;;;;;5074362;28;20294;-71
2022/05/21 00:38:09;;;;;;;3.90;3.07;;;13.70;99.90;;;;;;5061458;28;20215;-71
2022/05/21 00:40:37;;;;;;;4.40;3.00;;;13.70;99.90;;;;;;5068641;28;20199;-71
2022/05/21 00:43:04;;;;;;;2.73;2.47;;;13.70;99.90;;;;;;5066683;28;20209;-71
2022/05/21 00:45:31;;;;;;;3.27;2.80;;;13.70;99.90;;;;;;5068242;28;20217;-71
2022/05/21 00:47:59;;;;;;;3.60;2.63;;;13.60;99.90;;;;;;5074520;28;20668;-71
2022/05/21 00:50:30;;;;;;;3.50;2.80;;;13.60;99.90;;;;;;5074855;28;20202;-71
2022/05/21 00:52:58;;;;;;;5.53;2.97;;;13.60;99.90;;;;;;5070405;28;20207;-71
2022/05/21 00:55:29;;;;;;;3.60;2.90;;;13.70;99.90;;;;;;5074606;28;20198;-71
2022/05/21 01:00:43;;;;;;;4.33;3.07;;;13.60;99.90;;;;;;5072285;28;20217;-71
2022/05/21 01:03:12;;;;;;;4.50;3.30;;;13.60;99.90;;;;;;5074581;28;20202;-70
2022/05/21 01:05:40;;;;;;;3.27;2.90;;;13.60;99.90;;;;;;5055207;28;20223;-71
2022/05/21 01:08:08;;;;;;;3.20;3.00;;;13.60;99.90;;;;;;5066439;28;20198;-71
2022/05/21 01:10:38;;;;;;;4.10;3.20;;;13.50;99.90;;;;;;5064003;28;20203;-71
2022/05/21 01:13:09;;;;;;;3.60;2.80;;;13.60;99.90;;;;;;5055173;28;20218;-71
2022/05/21 01:15:40;;;;;;;3.40;3.10;;;13.50;99.90;;;;;;5058610;28;20202;-71
2022/05/21 01:18:08;;;;;;;3.43;3.13;;;13.50;99.90;;;;;;5067757;28;20198;-71
2022/05/21 01:20:37;;;;;;;3.93;3.10;;;13.50;99.90;;;;;;5083435;28;20296;-71
2022/05/21 01:23:06;;;;;;;3.60;3.30;;;13.50;99.90;;;;;;5068780;28;20202;-71
2022/05/21 01:25:35;;;;;;;4.57;3.47;;;13.40;99.90;;;;;;5074070;28;20233;-71
2022/05/21 01:28:03;;;;;;;5.23;3.37;;;13.30;99.90;;;;;;5072909;28;20202;-71
2022/05/21 01:30:34;;;;;;;5.03;3.40;;;13.40;99.90;;;;;;5064551;28;20540;-71
2022/05/21 01:33:04;;;;;;;3.73;3.27;;;13.30;99.90;;;;;;5073925;28;20202;-71
2022/05/21 01:35:32;;;;;;;3.37;2.97;;;13.30;99.90;;;;;;5074253;28;20256;-70
2022/05/21 01:37:59;;;;;;;3.20;2.90;;;13.20;99.90;;;;;;5071535;28;20640;-71
2022/05/21 01:40:28;;;;;;;5.90;3.60;;;13.10;99.90;;;;;;5073839;28;20466;-71
2022/05/21 01:45:39;;;;;;;5.63;3.00;;;13.00;99.90;;;;;;5054209;28;20226;-71
2022/05/21 01:48:07;;;;;;;5.20;3.13;;;12.90;99.90;;;;;;5059237;28;20633;-71
2022/05/21 01:50:36;;;;;;;3.73;2.83;;;12.90;99.90;;;;;;5067985;28;20203;-71
2022/05/21 01:53:03;;;;;;;7.07;3.10;;;12.80;99.90;;;;;;5071454;28;20202;-71
2022/05/21 01:55:32;;;;;;;3.47;3.17;;;12.80;99.90;;;;;;5053680;28;20657;-71
2022/05/21 01:57:59;;;;;;;4.63;3.50;;;12.60;99.90;;;;;;5073034;28;20201;-71
2022/05/21 02:00:27;;;;;;;7.60;3.80;;;12.70;99.90;;;;;;5071128;28;20198;-71
2022/05/21 02:02:53;;;;;;;6.13;3.57;;;12.70;99.90;;;;;;5073032;28;20208;-71
2022/05/21 02:05:20;;;;;;;6.27;4.13;;;12.60;99.90;;;;;;5066123;28;20217;-71
2022/05/21 02:07:47;;;;;;;8.43;4.07;;;12.60;99.90;;;;;;5053274;28;20213;-71
2022/05/21 02:10:14;;;;;;;5.40;4.20;;;12.60;99.90;;;;;;5058425;28;20194;-71
2022/05/21 02:12:42;;;;;;;5.23;4.20;;;12.50;99.90;;;;;;5073140;28;20277;-71
2022/05/21 02:15:10;;;;;;;6.17;4.33;;;12.50;99.90;;;;;;5060910;28;20209;-71
2022/05/21 02:17:37;;;;;;;5.93;4.37;;;12.40;99.90;;;;;;5073333;28;20202;-71
2022/05/21 02:20:05;;;;;;;6.80;4.40;;;12.40;99.90;;;;;;5073109;28;20208;-71
2022/05/21 02:22:32;;;;;;;7.33;4.57;;;12.40;99.90;;;;;;5072653;28;20195;-71
2022/05/21 02:24:58;;;;;;;7.03;4.57;;;12.50;99.90;;;;;;5072609;28;20201;-71
2022/05/21 02:27:25;;;;;;;7.63;4.97;;;12.40;99.90;;;;;;5072644;28;20222;-71
2022/05/21 02:29:54;;;;;;;9.10;5.67;;;12.40;99.90;;;;;;5073009;28;20553;-71
2022/05/21 02:32:20;;;;;;;7.70;5.33;;;12.50;99.90;;;;;;5070701;28;20248;-71
2022/05/21 02:34:47;;;;;;;8.37;5.83;;;12.40;99.90;;;;;;5072961;28;20245;-71
2022/05/21 02:39:58;;;;;;;7.10;5.97;;;12.60;99.90;;;;;;5050760;28;20260;-71
2022/05/21 02:45:13;;;;;;;9.57;6.73;;;12.60;99.90;;;;;;5073245;28;20675;-71
2022/05/21 02:47:40;;;;;;;7.80;6.07;;;12.60;99.90;;;;;;5072179;28;20224;-71
2022/05/21 02:50:08;;;;;;;9.67;6.40;;;12.60;99.90;;;;;;5055307;28;20230;-71
2022/05/21 02:52:35;;;;;;;8.83;5.97;;;12.60;99.90;;;;;;5067731;28;20210;-71
2022/05/21 02:55:03;;;;;;;8.93;6.10;;;12.60;99.90;;;;;;5072922;28;20210;-71
2022/05/21 02:57:29;;;;;;;9.13;5.93;;;12.60;99.90;;;;;;5072828;28;20649;-71
2022/05/21 02:59:56;;;;;;;8.87;6.57;;;12.60;99.90;;;;;;5072493;28;20205;-71
2022/05/21 03:02:25;;;;;;;8.33;5.57;;;12.50;99.90;;;;;;5070732;28;20687;-71
2022/05/21 03:04:52;;;;;;;11.47;6.67;;;12.40;99.90;;;;;;5070553;28;20194;-71
2022/05/21 03:07:19;;;;;;;10.37;6.10;;;12.40;99.90;;;;;;5071965;28;20639;-71
2022/05/21 03:12:30;;;;;;;9.10;5.47;;;12.30;99.90;;;;;;5072015;28;20218;-71
2022/05/21 03:14:57;;;;;;;8.87;5.57;;;12.20;99.90;;;;;;5064831;28;20668;-71
2022/05/21 03:17:28;;;;;;;6.90;5.17;;;12.10;99.90;;;;;;5062905;28;20201;-71
2022/05/21 03:19:55;;;;;;;8.60;5.67;;;12.20;99.90;;;;;;5072425;28;20672;-71
2022/05/21 03:22:22;;;;;;;7.53;5.47;;;12.10;99.90;;;;;;5066192;28;20646;-71
2022/05/21 03:24:49;;;;;;;9.47;5.93;;;12.10;99.90;;;;;;5056710;28;20198;-71
2022/05/21 03:27:15;;;;;;;10.10;6.17;;;12.10;99.90;;;;;;5071884;28;20228;-70
2022/05/21 03:29:42;;;;;;;8.53;5.67;;;12.10;99.90;;;;;;5071936;28;20199;-71
2022/05/21 03:32:09;;;;;;;9.23;5.90;;;12.10;99.90;;;;;;5068597;28;20206;-71
2022/05/21 03:34:37;;;;;;;9.77;5.63;;;12.10;99.90;;;;;;5071837;28;20198;-71
2022/05/21 03:37:05;;;;;;;7.93;4.93;;;11.90;99.90;;;;;;5071025;28;20204;-71
2022/05/21 03:39:32;;;;;;;9.13;5.53;;;11.90;99.90;;;;;;5051662;28;20661;-71
2022/05/21 03:41:59;;;;;;;9.63;5.70;;;12.00;99.90;;;;;;5068513;28;20195;-71
2022/05/21 03:44:27;;;;;;;10.57;5.30;;;12.00;99.90;;;;;;5072683;28;20202;-71
2022/05/21 03:46:53;;;;;;;9.07;5.43;;;12.10;99.90;;;;;;5071457;28;20226;-71
2022/05/21 03:49:21;;;;;;;9.07;5.47;;;12.20;99.90;;;;;;5053719;28;20273;-71
2022/05/21 03:51:49;;;;;;;10.13;5.50;;;12.20;99.90;;;;;;5071228;28;20199;-71
2022/05/21 03:54:16;;;;;;;8.50;5.87;;;12.20;99.90;;;;;;5071621;28;20210;-71
2022/05/21 03:56:43;;;;;;;10.50;6.20;;;12.30;99.90;;;;;;5075420;28;20193;-71
2022/05/21 03:59:10;;;;;;;12.50;6.27;;;13.00;99.90;;;;;;5076034;28;20198;-70
2022/05/21 04:01:36;;;;;;;10.43;6.13;;;13.50;99.90;;;;;;5075738;28;20556;-71
2022/05/21 04:04:04;;;;;;;10.40;6.50;;;13.30;99.90;;;;;;5060108;28;20298;-70
2022/05/21 04:06:31;;;;;;;11.40;6.30;;;12.70;99.90;;;;;;5066356;28;20220;-71
2022/05/21 04:08:59;;;;;;;10.33;6.87;;;12.70;99.90;;;;;;5064850;28;20563;-71
2022/05/21 04:11:26;;;;;;;12.13;6.97;;;12.70;99.90;;;;;;5067984;28;20194;-71
2022/05/21 04:13:53;;;;;;;10.87;7.10;;;12.60;99.90;;;;;;5068773;28;20383;-71
2022/05/21 04:16:19;;;;;;;9.97;6.87;;;12.50;99.90;;;;;;5063104;28;20208;-70
2022/05/21 04:18:46;;;;;;;15.57;7.27;;;12.90;99.90;;;;;;5070950;28;20201;-71
2022/05/21 04:21:13;;;;;;;12.83;7.43;;;13.00;99.90;;;;;;5058558;28;20210;-71
2022/05/21 04:23:40;;;;;;;9.63;6.97;;;12.80;99.90;;;;;;5067045;28;20548;-71
2022/05/21 04:26:08;;;;;;;12.83;7.53;;;13.00;99.90;;;;;;5071948;28;20202;-71
2022/05/21 04:28:35;;;;;;;12.47;8.53;;;13.10;99.90;;;;;;5070807;28;20191;-71
2022/05/21 04:31:02;;;;;;;14.67;9.97;;;13.10;99.90;;;;;;5061864;28;20205;-70
2022/05/21 04:33:29;;;;;;;17.20;10.67;;;13.50;99.90;;;;;;5067533;28;20202;-70
2022/05/21 04:38:41;;;;;;;14.77;10.70;;;13.10;99.90;;;;;;5069735;28;20668;-71
2022/05/21 04:41:10;;;;;;;13.90;10.60;;;13.00;99.90;;;;;;5072206;28;20267;-70
2022/05/21 04:43:37;;;;;;;18.43;11.03;;;12.90;99.90;;;;;;5062966;28;20203;-70
2022/05/21 04:46:04;;;;;;;16.60;11.63;;;12.90;99.90;;;;;;5064565;28;20548;-70
2022/05/21 04:48:31;;;;;;;17.93;12.80;;;12.90;99.90;;;;;;5066225;28;20222;-70
2022/05/21 04:50:59;;;;;;;19.93;12.83;;;13.00;99.90;;;;;;5068032;28;20202;-70
2022/05/21 04:53:26;;;;;;;18.60;12.57;;;13.00;99.90;;;;;;5059402;28;20199;-70
2022/05/21 04:55:53;;;;;;;17.57;12.67;;;13.00;99.90;;;;;;5063922;28;20201;-70
2022/05/21 04:58:21;;;;;;;18.00;12.13;;;13.00;99.90;;;;;;5068913;28;20198;-70
2022/05/21 05:00:49;;;;;;;20.00;11.97;;;13.10;99.90;;;;;;5067555;28;20209;-70
2022/05/21 05:03:17;;;;;;;20.00;12.60;;;13.10;99.90;;;;;;5060840;28;20202;-70
2022/05/21 05:05:46;;;;;;;18.87;12.60;;;13.10;99.90;;;;;;5067815;28;20552;-70
2022/05/21 05:08:14;;;;;;;19.23;12.77;;;13.10;99.90;;;;;;5063326;28;20234;-70
2022/05/21 05:10:41;;;;;;;18.27;13.33;;;13.10;99.90;;;;;;5065605;28;20203;-70
2022/05/21 05:13:08;;;;;;;20.00;13.60;;;13.00;99.90;;;;;;5068636;28;20546;-70
2022/05/21 05:15:36;;;;;;;21.40;14.37;;;13.00;99.90;;;;;;5065620;28;20638;-70
2022/05/21 05:18:05;;;;;;;18.97;13.67;;;13.10;99.90;;;;;;5064230;28;20669;-69
2022/05/21 05:20:32;;;;;;;22.07;14.30;;;13.20;99.90;;;;;;5066226;28;20196;-70
2022/05/21 05:22:59;;;;;;;21.00;14.77;;;13.10;99.90;;;;;;5064774;28;20202;-70
2022/05/21 05:25:26;;;;;;;21.53;14.70;;;13.10;99.90;;;;;;5064500;28;20203;-70
2022/05/21 05:27:53;;;;;;;20.27;14.53;;;13.20;99.90;;;;;;5067679;28;20222;-70
2022/05/21 05:30:22;;;;;;;23.73;15.27;;;13.30;99.90;;;;;;5066693;28;20211;-69
2022/05/21 05:32:50;;;;;;;21.73;15.57;;;13.30;99.90;;;;;;5067324;28;20217;-69
2022/05/21 05:35:18;;;;;;;21.57;16.20;;;13.50;99.90;;;;;;5061726;28;20224;-70
2022/05/21 05:37:45;;;;;;;20.83;15.07;;;13.60;99.90;;;;;;5065616;28;20210;-70
2022/05/21 05:40:15;;;;;;;24.87;16.57;;;13.90;99.90;;;;;;5065445;28;20659;-70
2022/05/21 05:42:42;;;;;;;23.07;15.87;;;14.00;99.90;;;;;;5067726;28;20201;-69
2022/05/21 05:45:12;;;;;;;22.00;16.73;;;14.00;99.90;;;;;;5064564;28;20202;-70
2022/05/21 05:47:39;;;;;;;22.73;16.17;;;13.90;99.90;;;;;;5063036;28;20272;-70
2022/05/21 05:50:09;;;;;;;21.97;16.27;;;14.00;99.90;;;;;;5065770;28;20209;-69
2022/05/21 05:52:36;;;;;;;23.90;16.37;;;13.90;99.90;;;;;;5063833;28;20198;-70
2022/05/21 05:55:03;;;;;;;23.40;17.30;;;13.80;99.90;;;;;;5068231;28;20207;-70
2022/05/21 05:57:30;;;;;;;24.00;16.73;;;13.80;99.90;;;;;;5063875;28;20196;-70
2022/05/21 05:59:56;;;;;;;24.83;18.17;;;13.80;99.90;;;;;;5063772;28;20563;-70
2022/05/21 06:05:13;;;;;;;23.20;16.73;;;13.80;99.90;;;;;;5067290;28;20277;-70
2022/05/21 06:07:44;;;;;;;25.57;17.10;;;13.80;99.90;;;;;;5066988;28;20229;-70
2022/05/21 06:10:13;;;;;;;23.83;17.07;;;13.70;99.90;;;;;;5066658;28;20203;-70
2022/05/21 06:12:40;;;;;;;25.37;17.83;;;13.70;99.90;;;;;;5067059;28;20217;-69
2022/05/21 06:15:09;;;;;;;24.77;18.27;;;13.80;99.90;;;;;;5066209;28;20207;-69
2022/05/21 06:17:36;;;;;;;26.80;18.17;;;13.80;99.90;;;;;;5061475;28;20238;-69
2022/05/21 06:20:03;;;;;;;23.37;17.57;;;13.80;99.90;;;;;;5061557;28;20649;-71
2022/05/21 06:22:32;;;;;;;23.40;18.80;;;13.70;99.90;;;;;;5066274;28;20216;-71
2022/05/21 06:25:00;;;;;;;21.77;17.67;;;13.60;99.90;;;;;;5069423;28;20314;-71
2022/05/21 06:27:26;;;;;;;23.00;18.67;;;13.60;99.90;;;;;;5064595;28;20222;-71
2022/05/21 06:29:53;;;;;;;23.57;17.43;;;13.70;99.90;;;;;;5062997;28;20678;-71
2022/05/21 06:32:20;;;;;;;21.83;18.43;;;13.60;99.90;;;;;;5071115;28;20618;-71
2022/05/21 06:34:47;;;;;;;21.83;17.40;;;13.60;99.90;;;;;;5065281;28;20205;-71
2022/05/21 06:37:14;;;;;;;23.03;17.30;;;13.60;99.90;;;;;;5062850;28;20206;-71
2022/05/21 06:39:43;;;;;;;22.93;18.27;;;13.60;99.90;;;;;;5064551;28;20211;-71
2022/05/21 06:42:11;;;;;;;23.67;19.10;;;13.60;99.90;;;;;;5064987;28;20203;-71
2022/05/21 06:44:38;;;;;;;27.00;19.70;;;13.70;99.90;;;;;;5065148;28;20203;-72
2022/05/21 06:47:06;;;;;;;27.47;19.43;;;13.60;99.90;;;;;;5066750;28;20578;-72
2022/05/21 06:49:33;;;;;;;23.37;17.93;;;13.70;99.90;;;;;;5065163;28;20254;-71
2022/05/21 06:52:00;;;;;;;26.57;19.00;;;13.70;99.90;;;;;;5062129;28;20416;-71
2022/05/21 06:54:28;;;;;;;23.87;18.20;;;13.70;99.90;;;;;;5068344;28;20206;-71
2022/05/21 06:56:56;;;;;;;24.60;18.33;;;13.60;99.90;;;;;;5063717;28;20296;-71
2022/05/21 06:59:23;;;;;;;22.13;17.20;;;13.80;99.90;;;;;;5064211;28;20205;-71
2022/05/21 07:01:50;;;;;;;26.00;19.33;;;13.80;99.90;;;;;;5063423;28;20668;-71
2022/05/21 07:07:32;;;;;;;25.07;17.53;;;13.80;99.90;;;;;;5067764;28;20203;-71
2022/05/21 07:09:49;;;;;;;24.63;17.63;;;14.00;99.90;;;;;;5064205;28;20213;-71
2022/05/21 07:12:17;;;;;;;23.23;16.87;;;14.00;99.90;;;;;;5064420;28;20202;-70
2022/05/21 07:14:44;;;;;;;22.13;17.30;;;13.90;99.90;;;;;;5060895;28;20663;-71
2022/05/21 07:17:11;;;;;;;22.23;16.57;;;13.90;99.90;;;;;;5062235;28;20204;-71
2022/05/21 07:19:38;;;;;;;22.70;16.80;;;13.90;99.90;;;;;;5061755;28;20203;-71
2022/05/21 07:22:06;;;;;;;22.17;16.60;;;14.00;99.90;;;;;;5063234;28;20198;-72
2022/05/21 07:24:34;;;;;;;22.57;16.37;;;14.10;99.90;;;;;;5058363;28;20650;-71
2022/05/21 07:27:02;;;;;;;20.80;16.50;;;14.20;99.90;;;;;;5066046;28;20218;-71
2022/05/21 07:29:30;;;;;;;23.10;15.27;;;14.10;99.90;;;;;;5067209;28;20206;-71
2022/05/21 07:31:57;;;;;;;20.53;15.90;;;14.10;99.90;;;;;;5065435;28;20748;-71
2022/05/21 07:34:24;;;;;;;22.80;16.40;;;14.00;99.90;;;;;;5063851;28;20661;-71
2022/05/21 07:36:50;;;;;;;22.43;17.03;;;14.00;99.90;;;;;;5073255;28;20218;-71
2022/05/21 07:39:17;;;;;;;20.70;15.30;;;14.00;99.90;;;;;;5069556;28;20232;-71
2022/05/21 07:41:44;;;;;;;19.30;14.73;;;14.30;99.90;;;;;;5067796;28;20565;-71
2022/05/21 07:44:11;;;;;;;19.20;15.37;;;14.50;99.90;;;;;;5064583;28;20211;-70
2022/05/21 07:46:39;;;;;;;21.73;14.63;;;14.60;99.90;;;;;;5072981;28;20194;-71
2022/05/21 07:49:06;;;;;;;21.10;15.83;;;14.50;99.90;;;;;;5073092;28;20698;-70
2022/05/21 07:51:34;;;;;;;20.27;13.93;;;14.50;99.90;;;;;;5062572;28;20203;-71
2022/05/21 07:54:01;;;;;;;20.87;15.23;;;14.60;99.90;;;;;;5065025;28;20212;-71
2022/05/21 07:56:29;;;;;;;21.60;14.70;;;14.50;99.90;;;;;;5068427;28;20199;-71
2022/05/21 07:58:57;;;;;;;21.40;14.47;;;14.30;99.90;;;;;;5064054;28;20198;-71
2022/05/21 08:01:24;;;;;;;17.17;13.20;;;14.30;99.90;;;;;;5070038;28;20202;-71
2022/05/21 08:03:52;;;;;;;19.77;13.40;;;14.20;99.90;;;;;;5073278;28;20206;-70
2022/05/21 08:06:19;;;;;;;20.10;13.33;;;14.30;99.90;;;;;;5069693;28;20653;-71
2022/05/21 08:08:48;;;;;;;21.27;13.37;;;14.50;99.90;;;;;;5073319;28;20215;-70
2022/05/21 08:11:15;;;;;;;18.43;11.97;;;14.50;99.90;;;;;;5069060;28;20212;-71
2022/05/21 08:13:42;;;;;;;17.80;12.83;;;14.60;99.90;;;;;;5065767;28;20199;-71
2022/05/21 08:16:09;;;;;;;16.37;11.50;;;14.80;99.90;;;;;;5062412;28;20218;-71
2022/05/21 08:18:36;;;;;;;17.83;12.33;;;15.00;99.90;;;;;;5068799;28;20203;-71
2022/05/21 08:21:04;;;;;;;16.77;11.83;;;15.10;99.90;;;;;;5070167;28;20731;-71
2022/05/21 08:29:00;;;;;;;14.40;10.63;;;15.80;1.00;;;;;;5067901;28;20691;-71
2022/05/21 08:31:27;;;;;;;18.47;11.30;;;15.80;1.00;;;;;;5071035;28;20255;-71
2022/05/21 08:33:54;;;;;;;16.63;11.17;;;16.10;1.00;;;;;;5068360;28;20671;-71
2022/05/21 08:36:22;;;;;;;14.43;10.00;;;16.10;1.00;;;;;;5071138;28;20553;-71
2022/05/21 08:38:50;;;;;;;14.13;10.30;;;16.50;1.00;;;;;;5067177;28;20213;-71
2022/05/21 08:41:21;;;;;;;14.48;9.43;;;16.40;1.00;;;;;;5070047;28;20649;-71
2022/05/21 08:43:59;;;;;;;15.77;10.20;;;16.40;1.00;;;;;;5071104;28;20199;-71
2022/05/21 08:46:37;;;;;;;14.13;10.30;;;16.50;1.00;;;;;;5062157;28;20229;-71
2022/05/21 08:49:06;;;;;;;12.55;9.57;;;16.60;1.00;;;;;;5080087;28;20218;-71
2022/05/21 08:51:41;;;;;;;15.48;9.95;;;16.90;1.00;;;;;;5069814;28;20207;-71
2022/05/21 08:54:08;;;;;;;16.97;9.83;;;16.80;1.00;;;;;;5067537;28;20209;-71
2022/05/21 08:56:37;;;;;;;16.33;10.38;;;16.60;1.00;;;;;;5058186;28;20236;-71
2022/05/21 08:59:06;;;;;;;11.70;8.37;;;16.80;1.00;;;;;;5072950;28;20198;-71
2022/05/21 09:01:35;;;;;;;16.02;8.68;;;16.90;1.00;;;;;;5065569;28;20202;-71
2022/05/21 09:04:03;;;;;;;14.73;8.45;;;17.10;1.00;;;;;;5068474;28;20209;-71
2022/05/21 09:06:40;;;;;;;11.93;7.60;;;16.80;1.00;;;;;;5063034;28;20653;-71
2022/05/21 09:09:18;;;;;;;8.63;7.40;;;16.90;1.00;;;;;;5062880;28;20237;-71
2022/05/21 09:11:49;;;;;;;13.00;8.00;;;16.70;1.00;;;;;;5066490;28;20553;-71
2022/05/21 09:14:25;;;;;;;12.83;7.70;;;16.80;1.00;;;;;;5058818;28;20253;-71
2022/05/21 09:16:57;;;;;;;12.80;7.95;;;16.90;1.00;;;;;;5068234;28;20575;-71
2022/05/21 09:19:26;;;;;;;10.02;6.68;;;16.70;1.00;;;;;;5081648;28;20604;-71
2022/05/21 09:22:00;;;;;;;11.23;6.40;;;17.60;1.00;;;;;;5081908;28;20200;-72
2022/05/21 09:24:35;;;;;;;12.95;6.65;;;18.00;99.90;;;;;;5064854;28;20260;-76
2022/05/21 09:27:04;;;;;;;11.68;8.35;;;17.90;1.00;;;;;;5054305;28;20203;-72
2022/05/21 09:29:33;;;;;;;13.50;8.30;;;17.30;1.00;;;;;;5063488;28;20218;-72
2022/05/21 09:32:15;;;;;;;11.55;8.25;;;17.10;99.90;;;;;;5067940;28;20218;-71
2022/05/21 09:34:42;;;;;;;13.68;7.72;;;16.80;1.00;;;;;;5071791;28;20206;-71
2022/05/21 09:37:17;;;;;;;12.32;7.53;;;16.70;1.00;;;;;;5073756;28;20305;-71
2022/05/21 09:39:44;;;;;;;11.90;7.63;;;16.80;99.90;;;;;;5058190;28;20714;-71
2022/05/21 09:45:21;;;;;;;10.45;6.78;;;16.70;99.90;;;;;;5053398;28;20203;-71
2022/05/21 09:45:22;;;;;;;10.98;6.78;;;16.60;1.00;;;;;;5071537;28;20238;-71
2022/05/21 09:47:49;;;;;;;11.35;6.95;;;17.30;99.90;;;;;;5072271;28;20194;-72
2022/05/21 09:50:22;;;;;;;12.50;6.90;;;17.70;99.90;;;;;;5052175;28;20591;-72
2022/05/21 09:52:50;;;;;;;10.65;6.03;;;18.00;99.90;;;;;;5052701;28;20210;-71
2022/05/21 09:55:24;;;;;;;8.63;5.95;;;17.70;99.90;;;;;;5073518;28;20578;-72
2022/05/21 09:57:51;;;;;;;9.52;4.78;;;17.80;99.90;;;;;;5072660;28;20536;-71
2022/05/21 10:00:23;;;;;;;11.27;5.90;;;17.50;1.00;;;;;;5068416;28;20209;-72
2022/05/21 10:02:53;;;;;;;8.95;6.30;;;17.20;99.90;;;;;;5072555;28;20565;-72
2022/05/21 10:05:25;;;;;;;15.27;6.72;;;16.90;1.00;;;;;;5055395;28;20199;-72
2022/05/21 10:11:00;;;;;;;10.73;7.28;;;16.80;1.00;;;;;;5057846;28;20213;-72
2022/05/21 10:13:30;;;;;;;13.75;6.72;;;16.90;1.00;;;;;;5051873;28;20203;-73
2022/05/21 10:16:02;;;;;;;13.05;7.00;;;17.10;99.90;;;;;;5053346;28;20210;-71
2022/05/21 10:18:36;;;;;;;9.70;6.13;;;17.70;1.00;;;;;;5072027;28;20747;-72
2022/05/21 10:21:13;;;;;;;11.63;5.80;;;18.20;1.00;;;;;;5056289;28;20233;-72
2022/05/21 10:23:48;;;;;;;10.55;5.38;;;18.50;1.00;;;;;;5057288;28;20273;-71
2022/05/21 10:26:30;;;;;;;6.88;4.75;;;18.90;99.90;;;;;;5053487;28;20203;-72
2022/05/21 10:29:27;;;;;;;6.75;4.43;;;19.00;1.00;;;;;;5072210;28;20226;-72
2022/05/21 10:32:01;;;;;;;8.18;5.15;;;18.90;1.00;;;;;;5045847;28;20194;-73
2022/05/21 10:34:44;;;;;;;11.05;6.38;;;18.10;1.00;;;;;;5052229;28;20207;-72
2022/05/21 10:37:30;;;;;;;13.13;6.85;;;17.80;1.00;;;;;;5060419;28;20653;-72
2022/05/21 10:40:17;;;;;;;11.18;6.35;;;17.80;1.00;;;;;;5065717;28;20194;-72
2022/05/21 10:42:57;;;;;;;10.27;5.70;;;17.60;1.00;;;;;;5065889;28;20209;-72
2022/05/21 10:45:30;;;;;;;7.47;5.22;;;18.70;1.00;;;;;;5065966;28;20660;-72
2022/05/21 10:48:27;;;;;;;9.05;4.05;;;19.40;99.90;;;;;;5060031;28;20668;-72
2022/05/21 10:51:01;;;;;;;5.22;3.80;;;19.70;1.00;;;;;;5062401;28;20199;-71
2022/05/21 10:53:42;;;;;;;4.32;3.60;;;19.00;1.00;;;;;;5059638;28;20206;-71
2022/05/21 10:56:30;;;;;;;6.30;4.57;;;18.50;1.00;;;;;;5064234;28;20229;-72
2022/05/21 10:59:12;;;;;;;11.30;6.85;;;17.70;1.00;;;;;;5059778;28;20565;-71
2022/05/21 11:01:50;;;;;;;9.23;7.22;;;17.50;1.00;;;;;;5063083;28;20202;-72
2022/05/21 11:04:47;;;;;;;9.60;6.85;;;17.30;99.90;;;;;;5063990;28;20201;-72
2022/05/21 11:07:39;;;;;;;11.07;7.65;;;16.90;1.00;;;;;;5056967;28;20214;-71
2022/05/21 11:10:24;;;;;;;11.10;6.97;;;16.80;5.70;;;;;;5067184;28;20249;-71
2022/05/21 11:12:58;;;;;;;13.77;7.72;;;16.80;53.20;;;;;;5057797;28;20209;-72
2022/05/21 11:15:34;;;;;;;15.15;8.25;;;17.10;95.60;;;;;;5060169;28;20202;-71
2022/05/21 11:18:06;;;;;;;12.35;8.65;;;17.80;1.00;;;;;;5065352;28;20217;-71
2022/05/21 11:20:36;;;;;;;12.13;8.05;;;18.40;1.00;;;;;;5057965;28;20203;-71
2022/05/21 11:23:08;;;;;;;14.48;8.40;;;18.80;1.00;;;;;;5061436;28;20213;-72
2022/05/21 11:25:41;;;;;;;14.68;7.95;;;18.90;1.00;;;;;;5058143;28;20198;-72
2022/05/21 11:28:22;;;;;;;11.27;7.57;;;18.30;1.00;;;;;;5066219;28;20198;-71
2022/05/21 11:30:48;;;;;;;10.43;7.65;;;18.30;99.90;;;;;;5064133;28;20216;-72
2022/05/21 11:38:50;;;;;;;9.73;5.90;;;20.20;99.90;;;;;;5026502;28;20596;-72
2022/05/21 11:41:28;;;;;;;9.70;6.20;;;20.40;1.00;;;;;;5062938;28;20213;-72
2022/05/21 11:46:46;;;;;;;7.78;4.90;;;20.40;99.90;;;;;;5065267;28;20207;-72
2022/05/21 11:49:35;;;;;;;9.15;4.72;;;20.10;1.00;;;;;;5066155;28;20232;-72
2022/05/21 11:52:36;;;;;;;9.35;5.25;;;20.00;99.90;;;;;;5061945;28;20680;-72
2022/05/21 11:55:14;;;;;;;7.85;6.45;;;19.90;1.00;;;;;;5063034;28;20197;-72
2022/05/21 11:57:43;;;;;;;8.82;6.30;;;19.30;1.00;;;;;;5059892;28;20209;-72
2022/05/21 12:00:45;;;;;;;10.30;5.88;;;19.60;1.00;;;;;;5061163;28;20206;-72
2022/05/21 12:03:19;;;;;;;10.65;6.28;;;20.10;99.90;;;;;;5066517;28;20206;-71
2022/05/21 12:06:12;;;;;;;7.07;5.45;;;20.10;1.00;;;;;;5065476;28;20213;-72
2022/05/21 12:08:46;;;;;;;8.35;5.80;;;19.90;99.90;;;;;;5060346;28;20673;-72
2022/05/21 12:11:41;;;;;;;7.90;4.82;;;19.20;1.00;;;;;;5065052;28;20199;-71
2022/05/21 12:14:25;;;;;;;9.43;4.75;;;20.30;99.90;;;;;;5071225;28;20679;-72
2022/05/21 12:16:56;;;;;;;9.88;5.10;;;19.80;1.00;;;;;;5060689;28;20206;-72
2022/05/21 12:19:59;;;;;;;8.32;4.75;;;19.80;1.00;;;;;;5063578;28;20294;-71
2022/05/21 12:22:50;;;;;;;12.52;6.68;;;20.00;1.00;;;;;;5071423;28;20214;-72
2022/05/21 12:25:56;;;;;;;8.68;4.57;;;20.20;19.50;;;;;;5066482;28;20218;-72
2022/05/21 12:28:26;;;;;;;7.43;4.68;;;20.80;1.00;;;;;;5063352;28;20260;-72
2022/05/21 12:31:00;;;;;;;7.78;4.30;;;20.20;99.90;;;;;;5059864;28;20203;-71
2022/05/21 12:33:41;;;;;;;8.93;4.32;;;20.30;99.90;;;;;;5063772;28;20234;-72
2022/05/21 12:36:22;;;;;;;6.90;4.03;;;20.30;99.90;;;;;;5066931;28;20450;-71
2022/05/21 12:38:52;;;;;;;5.75;3.92;;;20.40;99.90;;;;;;5073650;28;20198;-72
2022/05/21 12:41:25;;;;;;;6.72;3.45;;;19.80;99.90;;;;;;5058774;28;20203;-71
2022/05/21 12:43:54;;;;;;;7.55;3.33;;;19.80;99.90;;;;;;5057642;28;20220;-71
2022/05/21 12:46:27;;;;;;;6.28;3.47;;;19.50;99.90;;;;;;5062492;28;20202;-72
2022/05/21 12:48:58;;;;;;;6.75;3.33;;;20.00;99.90;;;;;;5057222;28;20225;-72
2022/05/21 12:51:31;;;;;;;7.22;3.42;;;20.70;99.90;;;;;;5073458;28;20206;-72
2022/05/21 12:53:59;;;;;;;7.65;3.17;;;21.20;83.20;;;;;;5062283;28;20302;-72
2022/05/21 12:56:31;;;;;;;6.13;3.63;;;21.40;1.00;;;;;;5073696;28;20218;-72
2022/05/21 12:59:11;;;;;;;6.32;3.50;;;20.80;1.00;;;;;;5073281;28;20637;-72
2022/05/21 13:01:43;;;;;;;7.22;3.50;;;20.90;1.00;;;;;;5053257;28;20203;-71
2022/05/21 13:04:29;;;;;;;7.07;3.72;;;21.10;1.00;;;;;;5057339;28;20665;-72
2022/05/21 13:07:01;;;;;;;11.27;4.22;;;20.70;1.00;;;;;;5066899;28;20650;-71
2022/05/21 13:09:28;;;;;;;6.22;3.72;;;20.30;99.90;;;;;;5065675;28;20227;-72
2022/05/21 13:11:56;;;;;;;10.60;4.07;;;19.70;99.90;;;;;;5061737;28;20288;-71
2022/05/21 13:14:29;;;;;;;9.60;4.32;;;19.40;99.90;;;;;;5056229;28;20576;-71
2022/05/21 13:16:58;;;;;;;6.22;3.58;;;19.10;1.00;;;;;;5054372;28;20206;-72
2022/05/21 13:19:55;;;;;;;7.45;3.30;;;19.00;1.00;;;;;;5080992;28;20294;-72
2022/05/21 13:22:31;;;;;;;5.55;3.42;;;18.90;1.00;;;;;;5058419;28;20198;-72
2022/05/21 13:25:02;;;;;;;7.68;3.25;;;18.50;99.90;;;;;;5065434;28;20198;-72
2022/05/21 13:27:42;;;;;;;9.80;3.28;;;18.40;1.00;;;;;;5070034;28;20207;-71
2022/05/21 13:30:13;;;;;;;7.78;3.25;;;18.40;1.00;;;;;;5059050;28;20699;-72
2022/05/21 13:32:40;;;;;;;7.00;2.95;;;18.70;1.00;;;;;;5074147;28;20213;-71
2022/05/21 13:35:20;;;;;;;7.03;3.15;;;19.10;1.00;;;;;;5073732;28;20198;-72
2022/05/21 13:37:50;;;;;;;5.78;2.97;;;19.40;99.90;;;;;;5069376;28;20566;-72